sensor_id;sensor_type;location;lat;lon;timestamp;P1;durP1;ratioP1;P2;durP2;ratioP2
39308;SDS011;26019;47.510;19.122;2024-01-30T00:09:46;65.70;;;33.40;;
39308;SDS011;26019;47.510;19.122;2024-01-30T00:19:49;72.53;;;34.00;;
39308;SDS011;26019;47.510;19.122;2024-01-30T00:29:51;59.90;;;34.17;;
39308;SDS011;26019;47.510;19.122;2024-01-30T00:39:59;66.55;;;32.13;;
39308;SDS011;26019;47.510;19.122;2024-01-30T00:50:03;60.40;;;31.55;;
39308;SDS011;26019;47.510;19.122;2024-01-30T01:00:05;63.00;;;33.35;;
39308;SDS011;26019;47.510;19.122;2024-01-30T01:10:09;57.50;;;31.92;;
39308;SDS011;26019;47.510;19.122;2024-01-30T01:20:15;63.17;;;33.80;;
39308;SDS011;26019;47.510;19.122;2024-01-30T01:40:41;56.53;;;31.00;;
39308;SDS011;26019;47.510;19.122;2024-01-30T01:50:43;58.03;;;30.48;;
39308;SDS011;26019;47.510;19.122;2024-01-30T02:00:45;68.65;;;32.45;;
39308;SDS011;26019;47.510;19.122;2024-01-30T02:10:47;62.03;;;31.17;;
39308;SDS011;26019;47.510;19.122;2024-01-30T02:20:50;62.53;;;31.00;;
39308;SDS011;26019;47.510;19.122;2024-01-30T02:30:55;58.20;;;30.20;;
39308;SDS011;26019;47.510;19.122;2024-01-30T02:40:57;57.28;;;30.73;;
39308;SDS011;26019;47.510;19.122;2024-01-30T02:51:00;61.00;;;32.17;;
39308;SDS011;26019;47.510;19.122;2024-01-30T03:01:02;60.17;;;31.50;;
39308;SDS011;26019;47.510;19.122;2024-01-30T03:11:04;62.45;;;33.67;;
39308;SDS011;26019;47.510;19.122;2024-01-30T03:21:06;58.65;;;32.05;;
39308;SDS011;26019;47.510;19.122;2024-01-30T03:31:08;58.78;;;30.85;;
39308;SDS011;26019;47.510;19.122;2024-01-30T03:41:10;64.03;;;31.95;;
39308;SDS011;26019;47.510;19.122;2024-01-30T03:51:12;60.30;;;32.83;;
39308;SDS011;26019;47.510;19.122;2024-01-30T04:01:17;57.05;;;29.08;;
39308;SDS011;26019;47.510;19.122;2024-01-30T04:11:20;66.50;;;33.47;;
39308;SDS011;26019;47.510;19.122;2024-01-30T04:21:22;65.75;;;33.38;;
39308;SDS011;26019;47.510;19.122;2024-01-30T04:31:26;59.67;;;32.00;;
39308;SDS011;26019;47.510;19.122;2024-01-30T04:41:27;58.53;;;33.78;;
39308;SDS011;26019;47.510;19.122;2024-01-30T04:51:37;63.80;;;33.80;;
39308;SDS011;26019;47.510;19.122;2024-01-30T05:01:40;64.47;;;31.60;;
39308;SDS011;26019;47.510;19.122;2024-01-30T05:11:45;60.17;;;32.28;;
39308;SDS011;26019;47.510;19.122;2024-01-30T05:21:46;64.60;;;34.55;;
39308;SDS011;26019;47.510;19.122;2024-01-30T05:31:48;64.95;;;34.13;;
39308;SDS011;26019;47.510;19.122;2024-01-30T05:41:50;61.47;;;33.70;;
39308;SDS011;26019;47.510;19.122;2024-01-30T05:51:53;64.43;;;33.30;;
39308;SDS011;26019;47.510;19.122;2024-01-30T06:01:55;55.78;;;31.88;;
39308;SDS011;26019;47.510;19.122;2024-01-30T06:11:57;58.70;;;32.40;;
39308;SDS011;26019;47.510;19.122;2024-01-30T06:21:59;57.72;;;31.38;;
39308;SDS011;26019;47.510;19.122;2024-01-30T06:32:01;57.33;;;30.33;;
39308;SDS011;26019;47.510;19.122;2024-01-30T06:42:06;53.33;;;29.48;;
39308;SDS011;26019;47.510;19.122;2024-01-30T06:52:08;61.92;;;31.42;;
39308;SDS011;26019;47.510;19.122;2024-01-30T07:02:22;59.03;;;30.30;;
39308;SDS011;26019;47.510;19.122;2024-01-30T07:22:35;59.70;;;29.20;;
39308;SDS011;26019;47.510;19.122;2024-01-30T07:32:37;52.35;;;28.35;;
39308;SDS011;26019;47.510;19.122;2024-01-30T07:42:39;51.17;;;26.77;;
39308;SDS011;26019;47.510;19.122;2024-01-30T07:52:43;57.17;;;29.42;;
39308;SDS011;26019;47.510;19.122;2024-01-30T08:02:45;58.80;;;28.75;;
39308;SDS011;26019;47.510;19.122;2024-01-30T08:12:47;54.47;;;29.33;;
39308;SDS011;26019;47.510;19.122;2024-01-30T08:22:49;63.53;;;29.98;;
39308;SDS011;26019;47.510;19.122;2024-01-30T08:32:51;51.00;;;28.40;;
39308;SDS011;26019;47.510;19.122;2024-01-30T08:42:54;44.88;;;24.42;;
39308;SDS011;26019;47.510;19.122;2024-01-30T08:52:56;45.80;;;25.20;;
39308;SDS011;26019;47.510;19.122;2024-01-30T09:02:59;35.42;;;20.92;;
39308;SDS011;26019;47.510;19.122;2024-01-30T09:13:02;43.95;;;21.35;;
39308;SDS011;26019;47.510;19.122;2024-01-30T09:23:03;44.53;;;21.87;;
39308;SDS011;26019;47.510;19.122;2024-01-30T09:33:06;36.70;;;20.73;;
39308;SDS011;26019;47.510;19.122;2024-01-30T09:43:11;33.38;;;17.83;;
39308;SDS011;26019;47.510;19.122;2024-01-30T09:53:25;31.70;;;17.10;;
39308;SDS011;26019;47.510;19.122;2024-01-30T10:03:28;36.03;;;17.45;;
39308;SDS011;26019;47.510;19.122;2024-01-30T10:13:30;31.23;;;16.23;;
39308;SDS011;26019;47.510;19.122;2024-01-30T10:23:33;32.45;;;16.25;;
39308;SDS011;26019;47.510;19.122;2024-01-30T10:33:36;24.23;;;15.33;;
39308;SDS011;26019;47.510;19.122;2024-01-30T10:43:40;25.10;;;15.30;;
39308;SDS011;26019;47.510;19.122;2024-01-30T10:53:49;23.55;;;14.82;;
39308;SDS011;26019;47.510;19.122;2024-01-30T11:03:55;23.83;;;13.43;;
39308;SDS011;26019;47.510;19.122;2024-01-30T11:14:00;24.67;;;13.07;;
39308;SDS011;26019;47.510;19.122;2024-01-30T11:24:03;17.88;;;9.98;;
39308;SDS011;26019;47.510;19.122;2024-01-30T11:34:23;16.73;;;10.02;;
39308;SDS011;26019;47.510;19.122;2024-01-30T11:44:40;18.33;;;9.85;;
39308;SDS011;26019;47.510;19.122;2024-01-30T11:54:42;17.48;;;10.50;;
39308;SDS011;26019;47.510;19.122;2024-01-30T12:04:45;17.98;;;10.50;;
39308;SDS011;26019;47.510;19.122;2024-01-30T12:14:48;17.77;;;9.32;;
39308;SDS011;26019;47.510;19.122;2024-01-30T12:24:51;15.70;;;9.55;;
39308;SDS011;26019;47.510;19.122;2024-01-30T12:34:55;12.27;;;7.85;;
39308;SDS011;26019;47.510;19.122;2024-01-30T12:45:02;9.73;;;7.28;;
39308;SDS011;26019;47.510;19.122;2024-01-30T12:55:08;11.65;;;6.80;;
39308;SDS011;26019;47.510;19.122;2024-01-30T13:05:26;10.80;;;6.43;;
39308;SDS011;26019;47.510;19.122;2024-01-30T13:15:29;15.65;;;6.63;;
39308;SDS011;26019;47.510;19.122;2024-01-30T13:25:45;10.35;;;5.88;;
39308;SDS011;26019;47.510;19.122;2024-01-30T13:35:47;11.80;;;6.28;;
39308;SDS011;26019;47.510;19.122;2024-01-30T13:55:57;9.23;;;6.00;;
39308;SDS011;26019;47.510;19.122;2024-01-30T14:05:59;11.07;;;7.50;;
39308;SDS011;26019;47.510;19.122;2024-01-30T14:16:03;10.93;;;6.67;;
39308;SDS011;26019;47.510;19.122;2024-01-30T14:26:10;11.82;;;7.93;;
39308;SDS011;26019;47.510;19.122;2024-01-30T14:36:15;12.25;;;6.25;;
39308;SDS011;26019;47.510;19.122;2024-01-30T14:56:22;9.25;;;5.88;;
39308;SDS011;26019;47.510;19.122;2024-01-30T15:06:25;11.38;;;6.97;;
39308;SDS011;26019;47.510;19.122;2024-01-30T15:16:28;9.83;;;6.17;;
39308;SDS011;26019;47.510;19.122;2024-01-30T15:26:30;10.18;;;6.53;;
39308;SDS011;26019;47.510;19.122;2024-01-30T15:36:32;17.35;;;7.75;;
39308;SDS011;26019;47.510;19.122;2024-01-30T15:46:38;17.05;;;7.88;;
39308;SDS011;26019;47.510;19.122;2024-01-30T15:56:41;35.50;;;14.23;;
39308;SDS011;26019;47.510;19.122;2024-01-30T16:06:44;36.70;;;15.30;;
39308;SDS011;26019;47.510;19.122;2024-01-30T16:16:46;32.13;;;12.67;;
39308;SDS011;26019;47.510;19.122;2024-01-30T16:26:50;31.45;;;12.98;;
39308;SDS011;26019;47.510;19.122;2024-01-30T16:36:52;19.65;;;9.68;;
39308;SDS011;26019;47.510;19.122;2024-01-30T16:46:54;19.77;;;10.73;;
39308;SDS011;26019;47.510;19.122;2024-01-30T16:56:56;34.47;;;14.93;;
39308;SDS011;26019;47.510;19.122;2024-01-30T17:07:00;37.00;;;18.52;;
39308;SDS011;26019;47.510;19.122;2024-01-30T17:17:04;37.83;;;20.08;;
39308;SDS011;26019;47.510;19.122;2024-01-30T17:27:13;40.95;;;22.27;;
39308;SDS011;26019;47.510;19.122;2024-01-30T17:37:16;47.65;;;23.45;;
39308;SDS011;26019;47.510;19.122;2024-01-30T17:47:21;49.45;;;26.23;;
39308;SDS011;26019;47.510;19.122;2024-01-30T17:57:24;48.35;;;25.30;;
39308;SDS011;26019;47.510;19.122;2024-01-30T18:07:40;51.05;;;25.67;;
39308;SDS011;26019;47.510;19.122;2024-01-30T18:17:43;46.22;;;24.80;;
39308;SDS011;26019;47.510;19.122;2024-01-30T18:27:44;53.08;;;28.02;;
39308;SDS011;26019;47.510;19.122;2024-01-30T18:37:50;54.78;;;27.85;;
39308;SDS011;26019;47.510;19.122;2024-01-30T18:47:52;54.67;;;27.55;;
39308;SDS011;26019;47.510;19.122;2024-01-30T18:57:56;49.80;;;26.77;;
39308;SDS011;26019;47.510;19.122;2024-01-30T19:07:59;50.50;;;27.40;;
39308;SDS011;26019;47.510;19.122;2024-01-30T19:18:04;53.83;;;28.13;;
39308;SDS011;26019;47.510;19.122;2024-01-30T19:28:06;49.63;;;27.45;;
39308;SDS011;26019;47.510;19.122;2024-01-30T19:38:09;50.60;;;28.73;;
39308;SDS011;26019;47.510;19.122;2024-01-30T19:48:14;53.58;;;27.58;;
39308;SDS011;26019;47.510;19.122;2024-01-30T19:58:20;51.20;;;28.92;;
39308;SDS011;26019;47.510;19.122;2024-01-30T20:08:22;55.93;;;30.13;;
39308;SDS011;26019;47.510;19.122;2024-01-30T20:18:25;52.75;;;29.15;;
39308;SDS011;26019;47.510;19.122;2024-01-30T20:28:28;50.08;;;27.25;;
39308;SDS011;26019;47.510;19.122;2024-01-30T20:38:31;54.42;;;28.38;;
39308;SDS011;26019;47.510;19.122;2024-01-30T20:48:35;51.08;;;28.02;;
39308;SDS011;26019;47.510;19.122;2024-01-30T20:58:40;46.00;;;26.43;;
39308;SDS011;26019;47.510;19.122;2024-01-30T21:08:42;48.67;;;27.57;;
39308;SDS011;26019;47.510;19.122;2024-01-30T21:18:46;52.17;;;26.90;;
39308;SDS011;26019;47.510;19.122;2024-01-30T21:38:52;51.07;;;26.57;;
39308;SDS011;26019;47.510;19.122;2024-01-30T21:48:54;53.15;;;28.98;;
39308;SDS011;26019;47.510;19.122;2024-01-30T21:58:57;53.90;;;29.10;;
39308;SDS011;26019;47.510;19.122;2024-01-30T22:08:59;53.42;;;30.27;;
39308;SDS011;26019;47.510;19.122;2024-01-30T22:19:01;53.72;;;31.85;;
39308;SDS011;26019;47.510;19.122;2024-01-30T22:29:03;53.45;;;29.15;;
39308;SDS011;26019;47.510;19.122;2024-01-30T22:39:06;54.28;;;30.25;;
39308;SDS011;26019;47.510;19.122;2024-01-30T22:49:11;56.65;;;29.95;;
39308;SDS011;26019;47.510;19.122;2024-01-30T22:59:15;57.63;;;30.23;;
39308;SDS011;26019;47.510;19.122;2024-01-30T23:09:19;62.28;;;33.25;;
39308;SDS011;26019;47.510;19.122;2024-01-30T23:39:28;61.60;;;31.98;;
39308;SDS011;26019;47.510;19.122;2024-01-30T23:49:32;58.60;;;32.08;;
39308;SDS011;26019;47.510;19.122;2024-01-30T23:59:37;61.97;;;33.35;;
